sensor_id;sensor_type;location;lat;lon;timestamp;pressure;altitude;pressure_sealevel;temperature;humidity
4398;BME280;2213;49.720;7.296;2023-02-15T00:01:56;99548.66;;;1.16;100.00
4398;BME280;2213;49.720;7.296;2023-02-15T00:04:27;99545.88;;;1.19;100.00
4398;BME280;2213;49.720;7.296;2023-02-15T00:07:15;99546.53;;;1.22;100.00
4398;BME280;2213;49.720;7.296;2023-02-15T00:09:46;99540.56;;;1.22;100.00
4398;BME280;2213;49.720;7.296;2023-02-15T00:12:16;99537.31;;;1.18;100.00
4398;BME280;2213;49.720;7.296;2023-02-15T00:14:48;99533.19;;;1.16;100.00
4398;BME280;2213;49.720;7.296;2023-02-15T00:17:18;99536.41;;;1.19;100.00
4398;BME280;2213;49.720;7.296;2023-02-15T00:19:48;99532.09;;;1.20;100.00
4398;BME280;2213;49.720;7.296;2023-02-15T00:22:19;99527.97;;;1.17;100.00
4398;BME280;2213;49.720;7.296;2023-02-15T00:24:48;99537.69;;;1.12;100.00
4398;BME280;2213;49.720;7.296;2023-02-15T00:27:19;99534.22;;;1.13;100.00
4398;BME280;2213;49.720;7.296;2023-02-15T00:29:51;99535.31;;;1.09;100.00
4398;BME280;2213;49.720;7.296;2023-02-15T00:32:21;99522.53;;;1.08;100.00
4398;BME280;2213;49.720;7.296;2023-02-15T00:34:51;99521.59;;;1.09;100.00
4398;BME280;2213;49.720;7.296;2023-02-15T00:37:21;99520.78;;;1.08;100.00
4398;BME280;2213;49.720;7.296;2023-02-15T00:39:51;99519.59;;;0.99;100.00
4398;BME280;2213;49.720;7.296;2023-02-15T00:42:21;99520.59;;;0.97;100.00
4398;BME280;2213;49.720;7.296;2023-02-15T00:44:52;99525.91;;;0.94;100.00
4398;BME280;2213;49.720;7.296;2023-02-15T00:47:22;99525.00;;;0.95;100.00
4398;BME280;2213;49.720;7.296;2023-02-15T00:49:53;99525.75;;;0.97;100.00
4398;BME280;2213;49.720;7.296;2023-02-15T00:52:23;99520.59;;;0.97;100.00
4398;BME280;2213;49.720;7.296;2023-02-15T00:54:52;99521.31;;;0.99;100.00
4398;BME280;2213;49.720;7.296;2023-02-15T00:57:22;99518.94;;;0.96;100.00
4398;BME280;2213;49.720;7.296;2023-02-15T00:59:52;99514.88;;;0.92;100.00
4398;BME280;2213;49.720;7.296;2023-02-15T01:02:21;99515.97;;;0.88;100.00
4398;BME280;2213;49.720;7.296;2023-02-15T01:04:50;99511.72;;;0.87;100.00
4398;BME280;2213;49.720;7.296;2023-02-15T01:07:20;99506.69;;;0.85;100.00
4398;BME280;2213;49.720;7.296;2023-02-15T01:09:49;99509.28;;;0.85;100.00
4398;BME280;2213;49.720;7.296;2023-02-15T01:12:19;99511.44;;;0.77;100.00
4398;BME280;2213;49.720;7.296;2023-02-15T01:14:49;99512.38;;;0.76;100.00
4398;BME280;2213;49.720;7.296;2023-02-15T01:17:21;99506.50;;;0.74;100.00
4398;BME280;2213;49.720;7.296;2023-02-15T01:19:50;99515.78;;;0.77;100.00
4398;BME280;2213;49.720;7.296;2023-02-15T01:22:19;99509.72;;;0.78;100.00
4398;BME280;2213;49.720;7.296;2023-02-15T01:24:50;99511.09;;;0.69;100.00
4398;BME280;2213;49.720;7.296;2023-02-15T01:27:20;99505.84;;;0.71;100.00
4398;BME280;2213;49.720;7.296;2023-02-15T01:29:50;99508.34;;;0.72;100.00
4398;BME280;2213;49.720;7.296;2023-02-15T01:32:21;99505.47;;;0.77;100.00
4398;BME280;2213;49.720;7.296;2023-02-15T01:34:51;99502.09;;;0.76;100.00
4398;BME280;2213;49.720;7.296;2023-02-15T01:37:20;99502.09;;;0.76;100.00
4398;BME280;2213;49.720;7.296;2023-02-15T01:39:51;99503.84;;;0.76;100.00
4398;BME280;2213;49.720;7.296;2023-02-15T01:42:22;99497.75;;;0.77;100.00
4398;BME280;2213;49.720;7.296;2023-02-15T01:44:56;99497.03;;;0.75;100.00
4398;BME280;2213;49.720;7.296;2023-02-15T01:47:36;99503.84;;;0.76;100.00
4398;BME280;2213;49.720;7.296;2023-02-15T01:50:12;99504.56;;;0.78;100.00
4398;BME280;2213;49.720;7.296;2023-02-15T01:52:50;99501.25;;;0.76;100.00
4398;BME280;2213;49.720;7.296;2023-02-15T01:55:24;99495.03;;;0.80;100.00
4398;BME280;2213;49.720;7.296;2023-02-15T01:57:54;99486.34;;;0.81;100.00
4398;BME280;2213;49.720;7.296;2023-02-15T02:00:23;99488.84;;;0.82;100.00
4398;BME280;2213;49.720;7.296;2023-02-15T02:02:56;99492.25;;;0.83;100.00
4398;BME280;2213;49.720;7.296;2023-02-15T02:05:25;99492.34;;;0.81;100.00
4398;BME280;2213;49.720;7.296;2023-02-15T02:07:59;99496.75;;;0.79;100.00
4398;BME280;2213;49.720;7.296;2023-02-15T02:10:30;99488.94;;;0.81;100.00
4398;BME280;2213;49.720;7.296;2023-02-15T02:13:05;99480.56;;;0.77;100.00
4398;BME280;2213;49.720;7.296;2023-02-15T02:15:52;99479.47;;;0.81;100.00
4398;BME280;2213;49.720;7.296;2023-02-15T02:18:41;99479.84;;;0.75;100.00
4398;BME280;2213;49.720;7.296;2023-02-15T02:25:22;99473.28;;;0.70;100.00
4398;BME280;2213;49.720;7.296;2023-02-15T02:28:34;99472.47;;;0.69;100.00
4398;BME280;2213;49.720;7.296;2023-02-15T02:31:50;99470.72;;;0.70;100.00
4398;BME280;2213;49.720;7.296;2023-02-15T02:34:30;99458.97;;;0.66;100.00
4398;BME280;2213;49.720;7.296;2023-02-15T02:37:13;99455.28;;;0.70;100.00
4398;BME280;2213;49.720;7.296;2023-02-15T02:39:52;99453.63;;;0.69;100.00
4398;BME280;2213;49.720;7.296;2023-02-15T02:42:34;99456.94;;;0.71;100.00
4398;BME280;2213;49.720;7.296;2023-02-15T02:45:09;99456.94;;;0.71;100.00
4398;BME280;2213;49.720;7.296;2023-02-15T02:47:47;99457.50;;;0.62;100.00
4398;BME280;2213;49.720;7.296;2023-02-15T02:50:28;99451.03;;;0.55;100.00
4398;BME280;2213;49.720;7.296;2023-02-15T02:52:59;99448.53;;;0.53;100.00
4398;BME280;2213;49.720;7.296;2023-02-15T02:55:36;99438.69;;;0.45;100.00
4398;BME280;2213;49.720;7.296;2023-02-15T02:58:10;99443.28;;;0.40;100.00
4398;BME280;2213;49.720;7.296;2023-02-15T03:00:49;99444.03;;;0.42;100.00
4398;BME280;2213;49.720;7.296;2023-02-15T03:03:27;99442.53;;;0.38;100.00
4398;BME280;2213;49.720;7.296;2023-02-15T03:06:04;99445.13;;;0.38;100.00
4398;BME280;2213;49.720;7.296;2023-02-15T03:08:39;99432.09;;;0.41;100.00
4398;BME280;2213;49.720;7.296;2023-02-15T03:11:11;99431.16;;;0.42;100.00
4398;BME280;2213;49.720;7.296;2023-02-15T03:13:42;99432.63;;;0.46;100.00
4398;BME280;2213;49.720;7.296;2023-02-15T03:16:15;99434.31;;;0.47;100.00
4398;BME280;2213;49.720;7.296;2023-02-15T03:19:01;99436.69;;;0.50;100.00
4398;BME280;2213;49.720;7.296;2023-02-15T03:21:37;99432.94;;;0.56;100.00
4398;BME280;2213;49.720;7.296;2023-02-15T03:24:14;99425.38;;;0.53;100.00
4398;BME280;2213;49.720;7.296;2023-02-15T03:26:50;99422.81;;;0.53;100.00
4398;BME280;2213;49.720;7.296;2023-02-15T03:29:25;99432.09;;;0.56;100.00
4398;BME280;2213;49.720;7.296;2023-02-15T03:32:03;99431.09;;;0.58;100.00
4398;BME280;2213;49.720;7.296;2023-02-15T03:34:35;99437.09;;;0.59;100.00
4398;BME280;2213;49.720;7.296;2023-02-15T03:37:11;99435.50;;;0.56;100.00
4398;BME280;2213;49.720;7.296;2023-02-15T03:39:49;99433.56;;;0.60;100.00
4398;BME280;2213;49.720;7.296;2023-02-15T03:42:26;99425.97;;;0.58;100.00
4398;BME280;2213;49.720;7.296;2023-02-15T03:45:02;99416.66;;;0.56;100.00
4398;BME280;2213;49.720;7.296;2023-02-15T03:47:37;99414.25;;;0.52;100.00
4398;BME280;2213;49.720;7.296;2023-02-15T03:50:13;99419.22;;;0.56;100.00
4398;BME280;2213;49.720;7.296;2023-02-15T03:53:02;99416.84;;;0.52;100.00
4398;BME280;2213;49.720;7.296;2023-02-15T03:55:35;99411.69;;;0.52;100.00
4398;BME280;2213;49.720;7.296;2023-02-15T03:58:04;99420.53;;;0.48;100.00
4398;BME280;2213;49.720;7.296;2023-02-15T04:00:58;99420.53;;;0.48;100.00
4398;BME280;2213;49.720;7.296;2023-02-15T04:03:58;99410.25;;;0.48;100.00
4398;BME280;2213;49.720;7.296;2023-02-15T04:06:28;99415.28;;;0.50;100.00
4398;BME280;2213;49.720;7.296;2023-02-15T04:08:59;99416.84;;;0.52;100.00
4398;BME280;2213;49.720;7.296;2023-02-15T04:11:46;99412.53;;;0.53;100.00
4398;BME280;2213;49.720;7.296;2023-02-15T04:14:16;99407.94;;;0.44;100.00
4398;BME280;2213;49.720;7.296;2023-02-15T04:17:05;99416.66;;;0.41;100.00
4398;BME280;2213;49.720;7.296;2023-02-15T04:19:35;99419.31;;;0.40;100.00
4398;BME280;2213;49.720;7.296;2023-02-15T04:22:23;99417.75;;;0.37;100.00
4398;BME280;2213;49.720;7.296;2023-02-15T04:25:15;99413.34;;;0.39;100.00
4398;BME280;2213;49.720;7.296;2023-02-15T04:27:47;99415.91;;;0.39;100.00
4398;BME280;2213;49.720;7.296;2023-02-15T04:30:20;99413.59;;;0.35;100.00
4398;BME280;2213;49.720;7.296;2023-02-15T04:32:51;99417.75;;;0.37;100.00
4398;BME280;2213;49.720;7.296;2023-02-15T04:35:20;99410.94;;;0.36;100.00
4398;BME280;2213;49.720;7.296;2023-02-15T04:37:50;99410.13;;;0.36;100.00
4398;BME280;2213;49.720;7.296;2023-02-15T04:40:22;99413.50;;;0.36;100.00
4398;BME280;2213;49.720;7.296;2023-02-15T04:42:52;99413.59;;;0.35;100.00
4398;BME280;2213;49.720;7.296;2023-02-15T04:45:23;99414.06;;;0.27;100.00
4398;BME280;2213;49.720;7.296;2023-02-15T04:47:53;99406.16;;;0.30;100.00
4398;BME280;2213;49.720;7.296;2023-02-15T04:50:22;99408.75;;;0.30;100.00
4398;BME280;2213;49.720;7.296;2023-02-15T04:52:52;99406.16;;;0.30;100.00
4398;BME280;2213;49.720;7.296;2023-02-15T04:55:23;99406.88;;;0.32;100.00
4398;BME280;2213;49.720;7.296;2023-02-15T04:57:55;99406.25;;;0.29;100.00
4398;BME280;2213;49.720;7.296;2023-02-15T05:00:25;99412.41;;;0.26;100.00
4398;BME280;2213;49.720;7.296;2023-02-15T05:02:56;99417.38;;;0.29;100.00
4398;BME280;2213;49.720;7.296;2023-02-15T05:05:26;99419.75;;;0.32;100.00
4398;BME280;2213;49.720;7.296;2023-02-15T05:07:55;99423.09;;;0.34;100.00
4398;BME280;2213;49.720;7.296;2023-02-15T05:10:26;99411.78;;;0.37;100.00
4398;BME280;2213;49.720;7.296;2023-02-15T05:12:55;99419.94;;;0.29;100.00
4398;BME280;2213;49.720;7.296;2023-02-15T05:15:24;99410.19;;;0.20;100.00
4398;BME280;2213;49.720;7.296;2023-02-15T05:17:54;99409.19;;;0.23;100.00
4398;BME280;2213;49.720;7.296;2023-02-15T05:20:25;99413.75;;;0.18;100.00
4398;BME280;2213;49.720;7.296;2023-02-15T05:22:54;99411.81;;;0.21;100.00
4398;BME280;2213;49.720;7.296;2023-02-15T05:25:26;99411.09;;;0.19;100.00
4398;BME280;2213;49.720;7.296;2023-02-15T05:28:12;99409.53;;;0.17;100.00
4398;BME280;2213;49.720;7.296;2023-02-15T05:31:02;99405.22;;;0.17;100.00
4398;BME280;2213;49.720;7.296;2023-02-15T05:33:34;99405.03;;;0.20;100.00
4398;BME280;2213;49.720;7.296;2023-02-15T05:36:05;99416.06;;;0.22;100.00
4398;BME280;2213;49.720;7.296;2023-02-15T05:38:35;99415.88;;;0.25;100.00
4398;BME280;2213;49.720;7.296;2023-02-15T05:41:09;99410.84;;;0.24;100.00
4398;BME280;2213;49.720;7.296;2023-02-15T05:43:39;99410.66;;;0.27;100.00
4398;BME280;2213;49.720;7.296;2023-02-15T05:46:08;99412.22;;;0.29;100.00
4398;BME280;2213;49.720;7.296;2023-02-15T05:48:38;99414.78;;;0.29;100.00
4398;BME280;2213;49.720;7.296;2023-02-15T05:51:10;99419.75;;;0.32;100.00
4398;BME280;2213;49.720;7.296;2023-02-15T05:53:41;99418.09;;;0.31;100.00
4398;BME280;2213;49.720;7.296;2023-02-15T05:56:11;99426.75;;;0.30;100.00
4398;BME280;2213;49.720;7.296;2023-02-15T05:58:42;99429.69;;;0.24;100.00
4398;BME280;2213;49.720;7.296;2023-02-15T06:01:13;99431.31;;;0.25;100.00
4398;BME280;2213;49.720;7.296;2023-02-15T06:03:43;99428.56;;;0.28;100.00
4398;BME280;2213;49.720;7.296;2023-02-15T06:06:13;99423.22;;;0.31;100.00
4398;BME280;2213;49.720;7.296;2023-02-15T06:08:42;99426.81;;;0.29;100.00
4398;BME280;2213;49.720;7.296;2023-02-15T06:11:13;99423.94;;;0.19;100.00
4398;BME280;2213;49.720;7.296;2023-02-15T06:13:43;99424.13;;;0.16;100.00
4398;BME280;2213;49.720;7.296;2023-02-15T06:16:13;99429.53;;;0.12;100.00
4398;BME280;2213;49.720;7.296;2023-02-15T06:18:43;99425.94;;;0.14;100.00
4398;BME280;2213;49.720;7.296;2023-02-15T06:21:13;99417.31;;;0.15;100.00
4398;BME280;2213;49.720;7.296;2023-02-15T06:23:42;99414.56;;;0.18;100.00
4398;BME280;2213;49.720;7.296;2023-02-15T06:26:13;99425.81;;;0.17;100.00
4398;BME280;2213;49.720;7.296;2023-02-15T06:28:44;99420.47;;;0.20;100.00
4398;BME280;2213;49.720;7.296;2023-02-15T06:31:13;99430.94;;;0.17;100.00
4398;BME280;2213;49.720;7.296;2023-02-15T06:33:43;99423.31;;;0.16;100.00
4398;BME280;2213;49.720;7.296;2023-02-15T06:36:13;99425.41;;;0.09;100.00
4398;BME280;2213;49.720;7.296;2023-02-15T06:38:43;99426.97;;;0.12;100.00
4398;BME280;2213;49.720;7.296;2023-02-15T06:41:15;99433.13;;;0.09;100.00
4398;BME280;2213;49.720;7.296;2023-02-15T06:43:44;99434.78;;;0.10;100.00
4398;BME280;2213;49.720;7.296;2023-02-15T06:46:14;99438.81;;;0.14;100.00
4398;BME280;2213;49.720;7.296;2023-02-15T06:48:43;99443.81;;;0.17;100.00
4398;BME280;2213;49.720;7.296;2023-02-15T06:51:12;99440.94;;;0.22;100.00
4398;BME280;2213;49.720;7.296;2023-02-15T06:53:42;99439.31;;;0.21;100.00
4398;BME280;2213;49.720;7.296;2023-02-15T06:56:14;99438.28;;;0.23;100.00
4398;BME280;2213;49.720;7.296;2023-02-15T06:58:43;99439.84;;;0.26;100.00
4398;BME280;2213;49.720;7.296;2023-02-15T07:01:14;99446.47;;;0.30;100.00
4398;BME280;2213;49.720;7.296;2023-02-15T07:03:44;99443.81;;;0.31;100.00
4398;BME280;2213;49.720;7.296;2023-02-15T07:06:12;99445.66;;;0.29;100.00
4398;BME280;2213;49.720;7.296;2023-02-15T07:08:42;99445.66;;;0.29;100.00
4398;BME280;2213;49.720;7.296;2023-02-15T07:11:11;99437.03;;;0.30;100.00
4398;BME280;2213;49.720;7.296;2023-02-15T07:14:00;99438.84;;;0.28;100.00
4398;BME280;2213;49.720;7.296;2023-02-15T07:16:30;99434.72;;;0.26;100.00
4398;BME280;2213;49.720;7.296;2023-02-15T07:18:59;99444.00;;;0.28;100.00
4398;BME280;2213;49.720;7.296;2023-02-15T07:21:29;99436.38;;;0.27;100.00
4398;BME280;2213;49.720;7.296;2023-02-15T07:23:58;99433.88;;;0.25;100.00
4398;BME280;2213;49.720;7.296;2023-02-15T07:26:29;99439.22;;;0.22;100.00
4398;BME280;2213;49.720;7.296;2023-02-15T07:29:00;99432.97;;;0.26;100.00
4398;BME280;2213;49.720;7.296;2023-02-15T07:31:30;99436.28;;;0.28;100.00
4398;BME280;2213;49.720;7.296;2023-02-15T07:34:00;99429.56;;;0.26;100.00
4398;BME280;2213;49.720;7.296;2023-02-15T07:36:31;99430.19;;;0.15;100.00
4398;BME280;2213;49.720;7.296;2023-02-15T07:39:02;99426.53;;;0.19;100.00
4398;BME280;2213;49.720;7.296;2023-02-15T07:41:32;99421.31;;;0.21;100.00
4398;BME280;2213;49.720;7.296;2023-02-15T07:44:03;99429.09;;;0.19;100.00
4398;BME280;2213;49.720;7.296;2023-02-15T07:46:33;99421.47;;;0.18;100.00
4398;BME280;2213;49.720;7.296;2023-02-15T07:49:04;99424.84;;;0.18;100.00
4398;BME280;2213;49.720;7.296;2023-02-15T07:51:34;99423.78;;;0.22;100.00
4398;BME280;2213;49.720;7.296;2023-02-15T07:54:03;99417.53;;;0.26;100.00
4398;BME280;2213;49.720;7.296;2023-02-15T07:56:32;99406.25;;;0.29;100.00
4398;BME280;2213;49.720;7.296;2023-02-15T07:59:06;99399.53;;;0.26;100.00
4398;BME280;2213;49.720;7.296;2023-02-15T08:01:38;99399.34;;;0.29;100.00
4398;BME280;2213;49.720;7.296;2023-02-15T08:04:09;99396.59;;;0.32;100.00
4398;BME280;2213;49.720;7.296;2023-02-15T08:06:39;99402.66;;;0.31;100.00
4398;BME280;2213;49.720;7.296;2023-02-15T08:09:09;99396.25;;;0.24;100.00
4398;BME280;2213;49.720;7.296;2023-02-15T08:11:38;99394.41;;;0.26;100.00
4398;BME280;2213;49.720;7.296;2023-02-15T08:14:13;99392.00;;;0.23;100.00
4398;BME280;2213;49.720;7.296;2023-02-15T08:16:45;99387.50;;;0.27;100.00
4398;BME280;2213;49.720;7.296;2023-02-15T08:19:17;99392.22;;;0.34;100.00
4398;BME280;2213;49.720;7.296;2023-02-15T08:21:49;99380.06;;;0.36;100.00
4398;BME280;2213;49.720;7.296;2023-02-15T08:24:22;99386.69;;;0.40;100.00
4398;BME280;2213;49.720;7.296;2023-02-15T08:26:52;99394.59;;;0.37;100.00
4398;BME280;2213;49.720;7.296;2023-02-15T08:29:25;99387.44;;;0.42;100.00
4398;BME280;2213;49.720;7.296;2023-02-15T08:31:56;99381.38;;;0.43;100.00
4398;BME280;2213;49.720;7.296;2023-02-15T08:34:27;99378.44;;;0.49;100.00
4398;BME280;2213;49.720;7.296;2023-02-15T08:36:58;99378.34;;;0.51;100.00
4398;BME280;2213;49.720;7.296;2023-02-15T08:39:29;99380.63;;;0.56;100.00
4398;BME280;2213;49.720;7.296;2023-02-15T08:41:59;99372.13;;;0.55;100.00
4398;BME280;2213;49.720;7.296;2023-02-15T08:44:30;99384.16;;;0.55;100.00
4398;BME280;2213;49.720;7.296;2023-02-15T08:47:00;99375.66;;;0.52;100.00
4398;BME280;2213;49.720;7.296;2023-02-15T08:49:31;99387.44;;;0.57;100.00
4398;BME280;2213;49.720;7.296;2023-02-15T08:52:01;99373.66;;;0.58;100.00
4398;BME280;2213;49.720;7.296;2023-02-15T08:54:31;99377.97;;;0.57;100.00
4398;BME280;2213;49.720;7.296;2023-02-15T08:57:00;99380.75;;;0.54;100.00
4398;BME280;2213;49.720;7.296;2023-02-15T08:59:31;99382.47;;;0.54;100.00
4398;BME280;2213;49.720;7.296;2023-02-15T09:02:00;99383.38;;;0.52;100.00
4398;BME280;2213;49.720;7.296;2023-02-15T09:04:32;99390.00;;;0.57;100.00
4398;BME280;2213;49.720;7.296;2023-02-15T09:07:02;99388.91;;;0.61;100.00
4398;BME280;2213;49.720;7.296;2023-02-15T09:09:32;99388.91;;;0.61;100.00
4398;BME280;2213;49.720;7.296;2023-02-15T09:12:01;99391.41;;;0.62;100.00
4398;BME280;2213;49.720;7.296;2023-02-15T09:14:33;99389.28;;;0.55;100.00
4398;BME280;2213;49.720;7.296;2023-02-15T09:17:04;99401.22;;;0.56;100.00
4398;BME280;2213;49.720;7.296;2023-02-15T09:19:35;99394.25;;;0.58;100.00
4398;BME280;2213;49.720;7.296;2023-02-15T09:22:05;99396.56;;;0.62;100.00
4398;BME280;2213;49.720;7.296;2023-02-15T09:24:35;99395.09;;;0.72;100.00
4398;BME280;2213;49.720;7.296;2023-02-15T09:27:05;99392.59;;;0.71;100.00
4398;BME280;2213;49.720;7.296;2023-02-15T09:29:39;99389.00;;;0.73;100.00
4398;BME280;2213;49.720;7.296;2023-02-15T09:32:13;99391.31;;;0.78;100.00
4398;BME280;2213;49.720;7.296;2023-02-15T09:34:44;99386.34;;;0.75;100.00
4398;BME280;2213;49.720;7.296;2023-02-15T09:37:14;99389.28;;;0.83;100.00
4398;BME280;2213;49.720;7.296;2023-02-15T09:39:43;99392.41;;;0.88;100.00
4398;BME280;2213;49.720;7.296;2023-02-15T09:42:49;99387.06;;;0.91;100.00
4398;BME280;2213;49.720;7.296;2023-02-15T09:45:45;99383.94;;;1.00;100.00
4398;BME280;2213;49.720;7.296;2023-02-15T09:48:39;99385.22;;;1.07;100.00
4398;BME280;2213;49.720;7.296;2023-02-15T09:51:55;99393.47;;;1.12;100.00
4398;BME280;2213;49.720;7.296;2023-02-15T09:54:55;99394.22;;;1.14;100.00
4398;BME280;2213;49.720;7.296;2023-02-15T09:57:37;99387.41;;;1.13;100.00
4398;BME280;2213;49.720;7.296;2023-02-15T10:00:23;99385.56;;;1.15;100.00
4398;BME280;2213;49.720;7.296;2023-02-15T10:03:21;99385.19;;;1.21;100.00
4398;BME280;2213;49.720;7.296;2023-02-15T10:06:17;99382.63;;;1.21;100.00
4398;BME280;2213;49.720;7.296;2023-02-15T10:09:22;99380.56;;;1.26;100.00
4398;BME280;2213;49.720;7.296;2023-02-15T10:12:10;99378.56;;;1.31;100.00
4398;BME280;2213;49.720;7.296;2023-02-15T10:15:19;99380.72;;;1.37;100.00
4398;BME280;2213;49.720;7.296;2023-02-15T10:18:19;99370.78;;;1.45;100.00
4398;BME280;2213;49.720;7.296;2023-02-15T10:21:02;99376.44;;;1.50;100.00
4398;BME280;2213;49.720;7.296;2023-02-15T10:23:52;99372.75;;;1.55;100.00
4398;BME280;2213;49.720;7.296;2023-02-15T10:26:35;99373.59;;;1.55;100.00
4398;BME280;2213;49.720;7.296;2023-02-15T10:29:16;99375.13;;;1.58;100.00
4398;BME280;2213;49.720;7.296;2023-02-15T10:31:51;99365.38;;;1.63;100.00
4398;BME280;2213;49.720;7.296;2023-02-15T10:34:36;99367.44;;;1.70;100.00
4398;BME280;2213;49.720;7.296;2023-02-15T10:37:33;99369.94;;;1.72;100.00
4398;BME280;2213;49.720;7.296;2023-02-15T10:40:18;99367.78;;;1.78;100.00
4398;BME280;2213;49.720;7.296;2023-02-15T10:43:11;99361.31;;;1.85;100.00
4398;BME280;2213;49.720;7.296;2023-02-15T10:45:57;99365.97;;;1.93;100.00
4398;BME280;2213;49.720;7.296;2023-02-15T10:49:05;99360.50;;;1.97;100.00
4398;BME280;2213;49.720;7.296;2023-02-15T10:51:56;99353.47;;;1.99;100.00
4398;BME280;2213;49.720;7.296;2023-02-15T10:54:40;99346.16;;;2.06;100.00
4398;BME280;2213;49.720;7.296;2023-02-15T10:57:24;99347.41;;;2.13;100.00
4398;BME280;2213;49.720;7.296;2023-02-15T11:00:09;99349.06;;;2.14;100.00
4398;BME280;2213;49.720;7.296;2023-02-15T11:03:05;99339.47;;;2.16;100.00
4398;BME280;2213;49.720;7.296;2023-02-15T11:05:56;99335.56;;;2.23;100.00
4398;BME280;2213;49.720;7.296;2023-02-15T11:08:40;99338.13;;;2.23;100.00
4398;BME280;2213;49.720;7.296;2023-02-15T11:11:16;99335.34;;;2.26;100.00
4398;BME280;2213;49.720;7.296;2023-02-15T11:13:56;99325.84;;;2.27;100.00
4398;BME280;2213;49.720;7.296;2023-02-15T11:16:32;99328.13;;;2.31;100.00
4398;BME280;2213;49.720;7.296;2023-02-15T11:19:09;99325.44;;;2.33;100.00
4398;BME280;2213;49.720;7.296;2023-02-15T11:21:44;99327.00;;;2.35;100.00
4398;BME280;2213;49.720;7.296;2023-02-15T11:24:18;99322.75;;;2.34;100.00
4398;BME280;2213;49.720;7.296;2023-02-15T11:26:54;99301.91;;;2.37;100.00
4398;BME280;2213;49.720;7.296;2023-02-15T11:29:31;99300.97;;;2.38;100.00
4398;BME280;2213;49.720;7.296;2023-02-15T11:32:13;99299.84;;;2.42;100.00
4398;BME280;2213;49.720;7.296;2023-02-15T11:34:53;99295.38;;;2.44;100.00
4398;BME280;2213;49.720;7.296;2023-02-15T11:37:33;99289.09;;;2.48;100.00
4398;BME280;2213;49.720;7.296;2023-02-15T11:40:24;99288.06;;;2.51;100.00
4398;BME280;2213;49.720;7.296;2023-02-15T11:42:57;99279.16;;;2.55;100.00
4398;BME280;2213;49.720;7.296;2023-02-15T11:45:29;99272.03;;;2.59;100.00
4398;BME280;2213;49.720;7.296;2023-02-15T11:48:02;99270.69;;;2.66;100.00
4398;BME280;2213;49.720;7.296;2023-02-15T11:50:38;99259.91;;;2.72;100.00
4398;BME280;2213;49.720;7.296;2023-02-15T11:53:13;99260.31;;;2.78;100.00
4398;BME280;2213;49.720;7.296;2023-02-15T11:55:47;99252.25;;;2.83;100.00
4398;BME280;2213;49.720;7.296;2023-02-15T11:58:29;99250.03;;;2.89;100.00
4398;BME280;2213;49.720;7.296;2023-02-15T12:01:09;99242.91;;;2.93;100.00
4398;BME280;2213;49.720;7.296;2023-02-15T12:03:46;99243.41;;;2.98;100.00
4398;BME280;2213;49.720;7.296;2023-02-15T12:06:24;99237.06;;;3.02;100.00
4398;BME280;2213;49.720;7.296;2023-02-15T12:09:06;99235.69;;;3.09;100.00
4398;BME280;2213;49.720;7.296;2023-02-15T12:11:41;99232.69;;;3.15;100.00
4398;BME280;2213;49.720;7.296;2023-02-15T12:14:12;99235.75;;;3.20;100.00
4398;BME280;2213;49.720;7.296;2023-02-15T12:16:46;99224.16;;;3.26;100.00
4398;BME280;2213;49.720;7.296;2023-02-15T12:19:29;99231.56;;;3.30;100.00
4398;BME280;2213;49.720;7.296;2023-02-15T12:22:02;99219.13;;;3.35;100.00
4398;BME280;2213;49.720;7.296;2023-02-15T12:24:43;99224.78;;;3.40;100.00
4398;BME280;2213;49.720;7.296;2023-02-15T12:27:18;99216.69;;;3.45;100.00
4398;BME280;2213;49.720;7.296;2023-02-15T12:29:51;99216.34;;;3.49;100.00
4398;BME280;2213;49.720;7.296;2023-02-15T12:32:26;99202.28;;;3.53;100.00
4398;BME280;2213;49.720;7.296;2023-02-15T12:35:01;99198.50;;;3.58;100.00
4398;BME280;2213;49.720;7.296;2023-02-15T12:37:37;99191.22;;;3.63;100.00
4398;BME280;2213;49.720;7.296;2023-02-15T12:40:21;99183.97;;;3.68;100.00
4398;BME280;2213;49.720;7.296;2023-02-15T12:42:53;99182.75;;;3.72;100.00
4398;BME280;2213;49.720;7.296;2023-02-15T12:45:26;99179.75;;;3.78;100.00
4398;BME280;2213;49.720;7.296;2023-02-15T12:48:14;99180.19;;;3.83;100.00
4398;BME280;2213;49.720;7.296;2023-02-15T12:50:46;99173.84;;;3.87;100.00
4398;BME280;2213;49.720;7.296;2023-02-15T12:53:33;99173.38;;;3.93;100.00
4398;BME280;2213;49.720;7.296;2023-02-15T12:56:05;99170.56;;;3.96;100.00
4398;BME280;2213;49.720;7.296;2023-02-15T12:58:38;99171.03;;;4.01;100.00
4398;BME280;2213;49.720;7.296;2023-02-15T13:01:14;99162.09;;;4.05;100.00
4398;BME280;2213;49.720;7.296;2023-02-15T13:04:01;99166.78;;;4.11;100.00
4398;BME280;2213;49.720;7.296;2023-02-15T13:06:35;99163.72;;;4.17;100.00
4398;BME280;2213;49.720;7.296;2023-02-15T13:09:14;99156.44;;;4.22;100.00
4398;BME280;2213;49.720;7.296;2023-02-15T13:11:46;99161.25;;;4.27;100.00
4398;BME280;2213;49.720;7.296;2023-02-15T13:14:20;99161.72;;;4.32;100.00
4398;BME280;2213;49.720;7.296;2023-02-15T13:16:56;99156.88;;;4.38;100.00
4398;BME280;2213;49.720;7.296;2023-02-15T13:19:35;99153.00;;;4.44;100.00
4398;BME280;2213;49.720;7.296;2023-02-15T13:22:11;99155.09;;;4.50;100.00
4398;BME280;2213;49.720;7.296;2023-02-15T13:24:48;99152.00;;;4.56;100.00
4398;BME280;2213;49.720;7.296;2023-02-15T13:27:25;99150.72;;;4.62;100.00
4398;BME280;2213;49.720;7.296;2023-02-15T13:30:08;99146.66;;;4.69;100.00
4398;BME280;2213;49.720;7.296;2023-02-15T13:32:42;99137.47;;;4.76;100.00
4398;BME280;2213;49.720;7.296;2023-02-15T13:35:16;99144.75;;;4.82;100.00
4398;BME280;2213;49.720;7.296;2023-02-15T13:41:29;99133.38;;;4.94;100.00
4398;BME280;2213;49.720;7.296;2023-02-15T13:44:16;99141.47;;;5.00;100.00
4398;BME280;2213;49.720;7.296;2023-02-15T13:47:09;99145.22;;;5.07;100.00
4398;BME280;2213;49.720;7.296;2023-02-15T13:50:01;99139.66;;;5.12;100.00
4398;BME280;2213;49.720;7.296;2023-02-15T13:52:39;99140.13;;;5.17;100.00
4398;BME280;2213;49.720;7.296;2023-02-15T13:55:36;99140.56;;;5.22;100.00
4398;BME280;2213;49.720;7.296;2023-02-15T14:01:45;99143.09;;;5.33;100.00
4398;BME280;2213;49.720;7.296;2023-02-15T14:04:48;99147.75;;;5.39;100.00
4398;BME280;2213;49.720;7.296;2023-02-15T14:07:41;99133.59;;;5.43;100.00
4398;BME280;2213;49.720;7.296;2023-02-15T14:10:44;99132.41;;;5.47;100.00
4398;BME280;2213;49.720;7.296;2023-02-15T14:13:54;99142.25;;;5.53;100.00
4398;BME280;2213;49.720;7.296;2023-02-15T14:16:43;99135.59;;;5.61;100.00
4398;BME280;2213;49.720;7.296;2023-02-15T14:19:40;99130.88;;;5.66;100.00
4398;BME280;2213;49.720;7.296;2023-02-15T14:22:25;99126.34;;;5.68;100.00